Time;durP1;ratioP1;P1;durP2;ratioP2;P2;SDS_P1;SDS_P2;PMS_P1;PMS_P2;Temp;Humidity;BMP_temperature;BMP_pressure;BME280_temperature;BME280_humidity;BME280_pressure;Samples;Min_cycle;Max_cycle;Signal;HPM_P1;HPM_P2
2023/07/30 00:01:14;;;;;;;4.90;2.10;;;;;;;;;;5073008;28;20037;-85
2023/07/30 00:03:39;;;;;;;4.65;2.10;;;;;;;;;;5074494;28;20081;-86
2023/07/30 00:06:05;;;;;;;3.55;1.80;;;;;;;;;;5061115;28;20033;-86
2023/07/30 00:08:30;;;;;;;4.15;2.28;;;;;;;;;;5071252;28;20119;-87
2023/07/30 00:10:59;;;;;;;4.45;2.10;;;;;;;;;;5058896;28;20029;-85
2023/07/30 00:13:25;;;;;;;4.40;2.38;;;;;;;;;;5073928;28;20045;-84
2023/07/30 00:15:51;;;;;;;4.30;2.25;;;;;;;;;;5073647;28;20036;-84
2023/07/30 00:18:17;;;;;;;4.97;2.10;;;;;;;;;;5072373;28;20045;-85
2023/07/30 00:20:42;;;;;;;3.13;2.20;;;;;;;;;;5060753;28;20075;-85
2023/07/30 00:23:11;;;;;;;2.88;2.20;;;;;;;;;;5070997;28;20048;-85
2023/07/30 00:25:36;;;;;;;3.33;2.00;;;;;;;;;;5075318;28;20036;-85
2023/07/30 00:28:02;;;;;;;5.38;2.38;;;;;;;;;;5066025;28;20049;-84
2023/07/30 00:30:28;;;;;;;4.40;2.30;;;;;;;;;;5057547;28;20043;-82
2023/07/30 00:32:53;;;;;;;4.35;2.30;;;;;;;;;;5049277;28;20061;-84
2023/07/30 00:35:19;;;;;;;5.88;2.50;;;;;;;;;;5078135;28;20024;-84
2023/07/30 00:37:44;;;;;;;4.05;2.40;;;;;;;;;;5072801;28;20029;-84
2023/07/30 00:40:11;;;;;;;6.53;2.42;;;;;;;;;;5066620;28;20041;-82
2023/07/30 00:42:36;;;;;;;5.00;2.60;;;;;;;;;;5061789;28;20540;-83
2023/07/30 00:45:03;;;;;;;5.57;2.35;;;;;;;;;;5048150;28;20049;-82
2023/07/30 00:47:30;;;;;;;3.80;2.50;;;;;;;;;;5073911;28;20024;-82
2023/07/30 00:49:55;;;;;;;5.13;2.45;;;;;;;;;;5067891;28;20045;-83
2023/07/30 00:52:23;;;;;;;3.28;2.50;;;;;;;;;;5056097;28;20025;-84
2023/07/30 00:54:48;;;;;;;3.58;2.30;;;;;;;;;;5064210;28;20461;-85
2023/07/30 00:57:15;;;;;;;3.85;2.40;;;;;;;;;;5061952;28;20033;-83
2023/07/30 00:59:41;;;;;;;3.17;2.20;;;;;;;;;;5052660;28;20033;-84
2023/07/30 01:02:07;;;;;;;3.17;2.10;;;;;;;;;;5060004;28;20101;-82
2023/07/30 01:04:40;;;;;;;4.22;2.60;;;;;;;;;;5055608;28;20067;-84
2023/07/30 01:07:06;;;;;;;3.55;2.03;;;;;;;;;;5067668;28;20029;-84
2023/07/30 01:09:33;;;;;;;3.40;2.20;;;;;;;;;;5067332;28;20025;-84
2023/07/30 01:12:01;;;;;;;4.05;2.50;;;;;;;;;;5077841;28;20035;-86
2023/07/30 01:14:27;;;;;;;4.75;2.15;;;;;;;;;;5070913;28;20060;-85
2023/07/30 01:16:53;;;;;;;5.72;2.15;;;;;;;;;;5072374;28;20045;-85
2023/07/30 01:19:19;;;;;;;2.67;2.10;;;;;;;;;;5054898;28;20037;-85
2023/07/30 01:21:44;;;;;;;2.83;2.10;;;;;;;;;;5083193;28;20040;-86
2023/07/30 01:24:10;;;;;;;4.20;2.40;;;;;;;;;;5078259;28;20040;-85
2023/07/30 01:27:11;;;;;;;5.05;2.20;;;;;;;;;;5062130;28;20021;-85
2023/07/30 01:29:37;;;;;;;3.03;2.17;;;;;;;;;;5057787;28;20040;-85
2023/07/30 01:32:06;;;;;;;3.47;2.30;;;;;;;;;;5072991;28;20028;-86
2023/07/30 01:34:35;;;;;;;3.08;1.90;;;;;;;;;;5067545;28;20027;-86
2023/07/30 01:37:01;;;;;;;5.05;2.00;;;;;;;;;;5074076;28;20021;-86
2023/07/30 01:39:28;;;;;;;2.70;2.00;;;;;;;;;;5076334;28;20040;-86
2023/07/30 01:41:54;;;;;;;3.67;2.20;;;;;;;;;;5069570;28;20056;-85
2023/07/30 01:44:20;;;;;;;3.65;1.90;;;;;;;;;;5069465;28;20045;-86
2023/07/30 01:46:46;;;;;;;4.25;2.28;;;;;;;;;;5080540;28;20017;-86
2023/07/30 01:49:11;;;;;;;3.53;2.10;;;;;;;;;;5069103;28;20048;-85
2023/07/30 01:51:37;;;;;;;2.72;2.05;;;;;;;;;;5069639;28;20040;-86
2023/07/30 01:54:03;;;;;;;3.95;1.98;;;;;;;;;;5064291;28;20024;-85
2023/07/30 01:56:28;;;;;;;3.20;2.00;;;;;;;;;;5076197;28;20029;-83
2023/07/30 01:58:54;;;;;;;2.40;1.90;;;;;;;;;;5067287;28;20064;-85
2023/07/30 02:01:20;;;;;;;2.85;2.10;;;;;;;;;;5060854;28;20412;-85
2023/07/30 02:03:45;;;;;;;4.18;2.30;;;;;;;;;;5069832;28;20037;-86
2023/07/30 02:06:12;;;;;;;4.07;2.20;;;;;;;;;;5065254;28;20032;-88
2023/07/30 02:08:37;;;;;;;4.35;2.05;;;;;;;;;;5065480;28;20071;-85
2023/07/30 02:11:03;;;;;;;3.55;2.30;;;;;;;;;;5072147;28;20024;-86
2023/07/30 02:13:29;;;;;;;3.00;2.05;;;;;;;;;;5072929;28;20501;-86
2023/07/30 02:15:54;;;;;;;3.95;2.38;;;;;;;;;;5067202;28;20059;-86
2023/07/30 02:18:20;;;;;;;3.30;2.00;;;;;;;;;;5068334;28;20034;-85
2023/07/30 02:20:46;;;;;;;2.58;2.00;;;;;;;;;;5078401;28;20074;-85
2023/07/30 02:23:11;;;;;;;5.78;2.22;;;;;;;;;;5075927;28;20029;-85
2023/07/30 02:25:37;;;;;;;3.13;2.10;;;;;;;;;;5067916;28;20045;-85
2023/07/30 02:28:03;;;;;;;3.17;2.10;;;;;;;;;;5063854;28;20056;-85
2023/07/30 02:30:29;;;;;;;3.15;2.22;;;;;;;;;;5075815;28;20029;-84
2023/07/30 02:32:55;;;;;;;4.20;2.08;;;;;;;;;;5079265;28;20037;-86
2023/07/30 02:35:20;;;;;;;4.05;2.20;;;;;;;;;;5063610;28;20101;-86
2023/07/30 02:37:46;;;;;;;3.88;2.10;;;;;;;;;;5070980;28;20071;-86
2023/07/30 02:40:11;;;;;;;2.40;1.80;;;;;;;;;;5053383;28;20036;-85
2023/07/30 02:42:37;;;;;;;4.25;1.98;;;;;;;;;;5069083;28;20061;-86
2023/07/30 02:45:03;;;;;;;4.10;2.13;;;;;;;;;;5075932;28;20132;-85
2023/07/30 02:47:29;;;;;;;3.25;1.92;;;;;;;;;;5065001;28;20059;-85
2023/07/30 02:49:55;;;;;;;3.08;1.90;;;;;;;;;;5061997;28;20040;-85
2023/07/30 02:52:20;;;;;;;4.60;2.08;;;;;;;;;;5071525;28;20407;-85
2023/07/30 02:54:46;;;;;;;4.90;1.90;;;;;;;;;;5070892;28;20097;-86
2023/07/30 02:57:12;;;;;;;3.10;1.92;;;;;;;;;;5073799;28;20028;-85
2023/07/30 02:59:38;;;;;;;5.65;1.98;;;;;;;;;;5051086;28;20128;-85
2023/07/30 03:02:07;;;;;;;3.97;1.92;;;;;;;;;;5068070;28;20098;-86
2023/07/30 03:04:33;;;;;;;3.55;1.80;;;;;;;;;;5059550;28;20033;-85
2023/07/30 03:07:01;;;;;;;4.95;1.90;;;;;;;;;;5065659;28;20033;-87
2023/07/30 03:09:27;;;;;;;2.55;1.85;;;;;;;;;;5068872;28;20045;-85
2023/07/30 03:11:53;;;;;;;2.85;1.90;;;;;;;;;;5065376;28;20100;-85
2023/07/30 03:14:20;;;;;;;3.55;1.88;;;;;;;;;;5060082;28;20048;-85
2023/07/30 03:16:49;;;;;;;3.45;1.90;;;;;;;;;;5053191;28;20047;-84
2023/07/30 03:19:15;;;;;;;4.20;1.90;;;;;;;;;;5073095;28;20043;-86
2023/07/30 03:21:41;;;;;;;3.90;2.30;;;;;;;;;;5063790;28;20021;-85
2023/07/30 03:24:06;;;;;;;4.25;1.90;;;;;;;;;;5053826;28;20033;-85
2023/07/30 03:26:32;;;;;;;3.42;1.88;;;;;;;;;;5071120;28;20108;-85
2023/07/30 03:28:57;;;;;;;2.58;2.00;;;;;;;;;;5076326;28;20045;-84
2023/07/30 03:31:23;;;;;;;4.18;1.73;;;;;;;;;;5066389;28;20034;-85
2023/07/30 03:33:48;;;;;;;2.30;2.00;;;;;;;;;;5061482;28;20063;-83
2023/07/30 03:36:14;;;;;;;4.25;2.53;;;;;;;;;;5054134;28;20472;-83
2023/07/30 03:38:40;;;;;;;5.43;1.98;;;;;;;;;;5065517;28;20032;-83
2023/07/30 03:41:06;;;;;;;3.17;2.20;;;;;;;;;;5057978;28;20029;-82
2023/07/30 03:43:35;;;;;;;4.00;2.20;;;;;;;;;;5042897;28;20376;-82
2023/07/30 03:46:00;;;;;;;3.45;2.15;;;;;;;;;;5063569;28;20025;-83
2023/07/30 03:48:26;;;;;;;3.38;2.30;;;;;;;;;;5055475;28;20500;-83
2023/07/30 03:50:53;;;;;;;6.50;3.20;;;;;;;;;;5064779;28;20431;-84
2023/07/30 03:53:19;;;;;;;4.97;3.28;;;;;;;;;;5062205;28;20088;-82
2023/07/30 03:55:44;;;;;;;6.70;3.35;;;;;;;;;;5066724;28;20097;-82
2023/07/30 03:58:09;;;;;;;3.15;2.10;;;;;;;;;;5055517;28;20033;-81
2023/07/30 04:00:35;;;;;;;2.88;2.08;;;;;;;;;;5055617;28;20040;-81
2023/07/30 04:03:01;;;;;;;5.70;2.10;;;;;;;;;;5061600;28;20034;-82
2023/07/30 04:05:28;;;;;;;3.10;2.20;;;;;;;;;;5062335;28;20058;-82
2023/07/30 04:07:53;;;;;;;6.15;2.35;;;;;;;;;;5066604;28;20033;-82
2023/07/30 04:10:19;;;;;;;2.38;1.90;;;;;;;;;;5061493;28;20044;-83
2023/07/30 04:12:44;;;;;;;2.58;2.00;;;;;;;;;;5053404;28;20048;-82
2023/07/30 04:15:10;;;;;;;2.88;2.28;;;;;;;;;;5074344;28;20028;-82
2023/07/30 04:17:39;;;;;;;3.80;2.40;;;;;;;;;;5072909;28;20164;-81
2023/07/30 04:20:05;;;;;;;2.53;1.90;;;;;;;;;;5066774;28;20025;-85
2023/07/30 04:22:31;;;;;;;2.75;1.98;;;;;;;;;;5051753;28;20033;-83
2023/07/30 04:24:56;;;;;;;4.28;1.90;;;;;;;;;;5081188;28;20061;-85
2023/07/30 04:27:22;;;;;;;3.05;1.98;;;;;;;;;;5062600;28;20091;-85
2023/07/30 04:29:47;;;;;;;2.60;1.77;;;;;;;;;;5064379;28;20043;-85
2023/07/30 04:32:13;;;;;;;2.33;1.75;;;;;;;;;;5064123;28;20024;-86
2023/07/30 04:34:39;;;;;;;4.13;2.10;;;;;;;;;;5050566;28;20029;-84
2023/07/30 04:37:04;;;;;;;4.43;1.80;;;;;;;;;;5071422;28;20029;-85
2023/07/30 04:39:35;;;;;;;2.30;1.80;;;;;;;;;;5065882;28;20095;-85
2023/07/30 04:42:01;;;;;;;2.67;1.90;;;;;;;;;;5056413;28;20033;-85
2023/07/30 04:44:26;;;;;;;3.15;2.08;;;;;;;;;;5069679;28;20032;-85
2023/07/30 04:46:55;;;;;;;3.00;2.00;;;;;;;;;;5067564;28;20037;-84
2023/07/30 04:49:20;;;;;;;2.70;1.83;;;;;;;;;;5076656;28;20067;-84
2023/07/30 04:51:46;;;;;;;3.03;1.92;;;;;;;;;;5076873;28;20030;-85
2023/07/30 04:54:12;;;;;;;2.45;1.80;;;;;;;;;;5067433;28;20036;-83
2023/07/30 04:56:37;;;;;;;3.05;1.60;;;;;;;;;;5041769;28;20030;-83
2023/07/30 04:59:03;;;;;;;3.97;1.80;;;;;;;;;;5070761;28;20033;-83
2023/07/30 05:01:29;;;;;;;2.53;1.70;;;;;;;;;;5052671;28;20445;-84
2023/07/30 05:03:54;;;;;;;2.40;2.00;;;;;;;;;;5062630;28;20041;-83
2023/07/30 05:06:20;;;;;;;2.65;1.90;;;;;;;;;;5049888;28;20059;-85
2023/07/30 05:08:46;;;;;;;4.90;1.83;;;;;;;;;;5059831;28;20080;-86
2023/07/30 05:11:11;;;;;;;2.85;1.70;;;;;;;;;;5065656;28;20039;-83
2023/07/30 05:13:37;;;;;;;2.45;1.58;;;;;;;;;;5060303;28;20507;-83
2023/07/30 05:16:02;;;;;;;3.13;1.60;;;;;;;;;;5060535;28;20024;-85
2023/07/30 05:18:28;;;;;;;2.00;1.60;;;;;;;;;;5069184;28;20048;-85
2023/07/30 05:20:54;;;;;;;2.38;1.70;;;;;;;;;;5057926;28;20041;-85
2023/07/30 05:23:20;;;;;;;4.13;1.63;;;;;;;;;;5065052;28;20033;-85
2023/07/30 05:25:45;;;;;;;2.90;1.67;;;;;;;;;;5072038;28;20039;-84
2023/07/30 05:28:11;;;;;;;4.65;1.60;;;;;;;;;;5068460;28;20036;-84
2023/07/30 05:30:37;;;;;;;3.03;1.63;;;;;;;;;;5056644;28;20044;-84
2023/07/30 05:33:02;;;;;;;2.58;1.70;;;;;;;;;;5058489;28;20119;-85
2023/07/30 05:35:28;;;;;;;2.30;1.75;;;;;;;;;;5070449;28;20033;-82
2023/07/30 05:37:53;;;;;;;5.72;1.60;;;;;;;;;;5060066;28;20037;-82
2023/07/30 05:40:19;;;;;;;3.92;1.50;;;;;;;;;;5062599;28;20481;-83
2023/07/30 05:42:44;;;;;;;2.33;1.92;;;;;;;;;;5060720;28;20072;-82
2023/07/30 05:45:10;;;;;;;3.40;1.50;;;;;;;;;;5065787;28;20116;-82
2023/07/30 05:47:36;;;;;;;2.47;1.50;;;;;;;;;;5063302;28;20029;-81
2023/07/30 05:50:02;;;;;;;3.88;1.52;;;;;;;;;;5066065;28;20048;-82
2023/07/30 05:52:28;;;;;;;3.33;1.63;;;;;;;;;;5060452;28;20103;-82
2023/07/30 05:54:53;;;;;;;2.60;1.50;;;;;;;;;;5049034;28;20044;-81
2023/07/30 05:57:19;;;;;;;3.45;1.52;;;;;;;;;;5060019;28;20048;-82
2023/07/30 05:59:44;;;;;;;2.25;1.48;;;;;;;;;;5063834;28;20118;-82
2023/07/30 06:02:10;;;;;;;1.83;1.35;;;;;;;;;;5062342;28;20051;-82
2023/07/30 06:04:35;;;;;;;2.00;1.50;;;;;;;;;;5054141;28;20064;-83
2023/07/30 06:07:02;;;;;;;3.67;1.40;;;;;;;;;;5062211;28;20139;-83
2023/07/30 06:09:28;;;;;;;2.03;1.35;;;;;;;;;;5066418;28;20041;-81
2023/07/30 06:11:55;;;;;;;2.10;1.30;;;;;;;;;;5057288;28;20380;-82
2023/07/30 06:14:20;;;;;;;4.25;1.50;;;;;;;;;;5059817;28;20035;-81
2023/07/30 06:16:46;;;;;;;1.98;1.40;;;;;;;;;;5069441;28;20041;-82
2023/07/30 06:19:11;;;;;;;2.08;1.30;;;;;;;;;;5071486;28;20033;-83
2023/07/30 06:21:37;;;;;;;1.85;1.33;;;;;;;;;;5061221;28;20043;-82
2023/07/30 06:24:02;;;;;;;1.33;1.17;;;;;;;;;;5070966;28;20029;-83
2023/07/30 06:26:28;;;;;;;1.40;1.23;;;;;;;;;;5059729;28;20076;-85
2023/07/30 06:28:53;;;;;;;2.50;1.40;;;;;;;;;;5052392;28;20048;-83
2023/07/30 06:31:19;;;;;;;2.50;1.20;;;;;;;;;;5052252;28;20025;-83
2023/07/30 06:33:44;;;;;;;1.45;1.30;;;;;;;;;;5075367;28;20041;-84
2023/07/30 06:36:10;;;;;;;1.55;1.30;;;;;;;;;;5064912;28;20036;-84
2023/07/30 06:38:35;;;;;;;1.52;1.25;;;;;;;;;;5053249;28;20029;-84
2023/07/30 06:41:01;;;;;;;2.63;1.20;;;;;;;;;;5061696;28;20455;-84
2023/07/30 06:43:26;;;;;;;1.88;1.20;;;;;;;;;;5068214;28;20056;-81
2023/07/30 06:45:53;;;;;;;1.83;1.30;;;;;;;;;;5056401;28;20461;-81
2023/07/30 06:48:19;;;;;;;2.22;1.30;;;;;;;;;;5053877;28;20036;-83
2023/07/30 06:50:44;;;;;;;2.70;1.40;;;;;;;;;;5057659;28;20395;-81
2023/07/30 06:53:10;;;;;;;1.40;1.10;;;;;;;;;;5059957;28;20035;-84
2023/07/30 06:55:35;;;;;;;4.95;1.33;;;;;;;;;;5060358;28;20043;-83
2023/07/30 06:58:00;;;;;;;1.90;1.23;;;;;;;;;;5066998;28;20077;-82
2023/07/30 07:00:26;;;;;;;2.08;1.33;;;;;;;;;;5063213;28;20051;-83
2023/07/30 07:02:51;;;;;;;1.92;1.40;;;;;;;;;;5047820;28;20025;-84
2023/07/30 07:05:17;;;;;;;2.63;1.35;;;;;;;;;;5065600;28;20052;-85
2023/07/30 07:07:42;;;;;;;3.15;1.38;;;;;;;;;;5074639;28;20037;-85
2023/07/30 07:10:10;;;;;;;1.63;1.20;;;;;;;;;;5069705;28;20057;-84
2023/07/30 07:12:36;;;;;;;2.08;1.40;;;;;;;;;;5058604;28;20037;-83
2023/07/30 07:15:02;;;;;;;3.15;1.50;;;;;;;;;;5065239;28;20025;-84
2023/07/30 07:17:28;;;;;;;2.42;1.52;;;;;;;;;;5074142;28;20682;-87
2023/07/30 07:19:53;;;;;;;1.40;1.27;;;;;;;;;;5063480;28;20171;-86
2023/07/30 07:22:19;;;;;;;3.45;1.30;;;;;;;;;;5066697;28;20536;-86
2023/07/30 07:24:44;;;;;;;2.17;1.30;;;;;;;;;;5057700;28;20030;-85
2023/07/30 07:27:10;;;;;;;2.10;1.20;;;;;;;;;;5057517;28;20044;-85
2023/07/30 07:29:36;;;;;;;1.65;1.30;;;;;;;;;;5059040;28;20024;-85
2023/07/30 07:32:02;;;;;;;1.63;1.20;;;;;;;;;;5064553;28;20036;-85
2023/07/30 07:34:28;;;;;;;1.48;1.27;;;;;;;;;;5060899;28;20024;-86
2023/07/30 07:36:53;;;;;;;1.85;1.20;;;;;;;;;;5051893;28;20037;-85
2023/07/30 07:39:19;;;;;;;1.58;1.15;;;;;;;;;;5052483;28;20036;-86
2023/07/30 07:41:45;;;;;;;2.10;1.10;;;;;;;;;;5065986;28;20037;-85
2023/07/30 07:44:10;;;;;;;1.70;1.17;;;;;;;;;;5062631;28;20027;-86
2023/07/30 07:46:36;;;;;;;1.73;1.30;;;;;;;;;;5054095;28;20037;-84
2023/07/30 07:49:01;;;;;;;1.88;1.23;;;;;;;;;;5049297;28;20324;-86
2023/07/30 07:51:27;;;;;;;1.65;1.05;;;;;;;;;;5071203;28;20082;-86
2023/07/30 07:53:52;;;;;;;2.88;1.23;;;;;;;;;;5077510;28;20016;-86
2023/07/30 07:56:18;;;;;;;2.15;1.40;;;;;;;;;;5069288;28;20404;-84
2023/07/30 07:58:43;;;;;;;1.45;1.10;;;;;;;;;;5049962;28;20071;-84
2023/07/30 08:01:09;;;;;;;2.65;1.30;;;;;;;;;;5058134;28;20102;-86
2023/07/30 08:03:34;;;;;;;1.67;1.10;;;;;;;;;;5071012;28;20118;-83
2023/07/30 08:06:00;;;;;;;1.85;1.40;;;;;;;;;;5064401;28;20314;-83
2023/07/30 08:08:26;;;;;;;1.38;1.20;;;;;;;;;;5055022;28;20118;-82
2023/07/30 08:10:52;;;;;;;1.65;1.30;;;;;;;;;;5063741;28;20029;-82
2023/07/30 08:13:18;;;;;;;2.55;1.20;;;;;;;;;;5057341;28;20680;-85
2023/07/30 08:15:43;;;;;;;1.50;1.30;;;;;;;;;;5071530;28;20037;-86
2023/07/30 08:18:09;;;;;;;1.58;1.20;;;;;;;;;;5066921;28;20097;-87
2023/07/30 08:20:35;;;;;;;2.20;1.17;;;;;;;;;;5069129;28;20154;-84
2023/07/30 08:23:00;;;;;;;1.25;1.10;;;;;;;;;;5064708;28;20172;-84
2023/07/30 08:25:26;;;;;;;5.03;1.27;;;;;;;;;;5068144;28;20040;-83
2023/07/30 08:27:51;;;;;;;1.88;1.30;;;;;;;;;;5072170;28;20020;-85
2023/07/30 08:30:17;;;;;;;2.47;1.30;;;;;;;;;;5074175;28;20031;-83
2023/07/30 08:32:43;;;;;;;3.20;1.45;;;;;;;;;;5064689;28;20028;-86
2023/07/30 08:35:10;;;;;;;2.70;1.38;;;;;;;;;;5054828;28;20033;-86
2023/07/30 08:37:35;;;;;;;2.33;1.33;;;;;;;;;;5075368;28;20033;-87
2023/07/30 08:40:01;;;;;;;1.95;1.35;;;;;;;;;;5075233;28;20048;-84
2023/07/30 08:42:26;;;;;;;1.40;1.30;;;;;;;;;;5074494;28;20507;-84
2023/07/30 08:44:52;;;;;;;2.42;1.33;;;;;;;;;;5065752;28;20084;-86
2023/07/30 08:47:17;;;;;;;1.52;1.17;;;;;;;;;;5068477;28;20028;-85
2023/07/30 08:49:43;;;;;;;2.05;1.38;;;;;;;;;;5076713;28;20044;-86
2023/07/30 08:52:10;;;;;;;2.13;1.23;;;;;;;;;;5067780;28;20089;-84
2023/07/30 08:54:38;;;;;;;1.35;1.08;;;;;;;;;;5072625;28;20037;-83
2023/07/30 08:57:04;;;;;;;1.33;1.02;;;;;;;;;;5066698;28;20072;-83
2023/07/30 08:59:41;;;;;;;2.85;1.40;;;;;;;;;;5056550;28;20029;-83
2023/07/30 09:02:16;;;;;;;2.00;1.30;;;;;;;;;;5073806;28;20040;-82
2023/07/30 09:04:48;;;;;;;2.00;1.20;;;;;;;;;;5067780;28;20123;-86
2023/07/30 09:07:13;;;;;;;1.63;1.20;;;;;;;;;;5057919;28;20114;-86
2023/07/30 09:09:40;;;;;;;5.78;1.50;;;;;;;;;;5060615;28;20029;-87
2023/07/30 09:12:13;;;;;;;2.90;1.33;;;;;;;;;;5080055;28;20033;-85
2023/07/30 09:14:39;;;;;;;;;;;;;;;;;;5068735;28;20055;-87
2023/07/30 09:17:04;;;;;;;2.17;1.30;;;;;;;;;;5061506;28;19940;-85
2023/07/30 09:19:35;;;;;;;1.80;1.35;;;;;;;;;;5066898;28;20631;-84
2023/07/30 09:22:04;;;;;;;1.67;1.30;;;;;;;;;;5058722;28;20463;-84
2023/07/30 09:24:30;;;;;;;2.40;1.40;;;;;;;;;;5059375;28;20053;-85
2023/07/30 09:26:57;;;;;;;1.65;1.30;;;;;;;;;;5047088;28;20028;-83
2023/07/30 09:29:23;;;;;;;2.38;1.10;;;;;;;;;;5063542;28;20040;-84
2023/07/30 09:31:56;;;;;;;3.08;1.33;;;;;;;;;;5047648;28;20067;-84
2023/07/30 09:34:24;;;;;;;1.48;1.30;;;;;;;;;;5058727;28;20036;-87
2023/07/30 09:36:51;;;;;;;1.73;1.30;;;;;;;;;;5068431;28;20043;-86
2023/07/30 09:39:20;;;;;;;1.55;1.20;;;;;;;;;;5063867;28;20060;-86
2023/07/30 09:41:46;;;;;;;1.30;1.20;;;;;;;;;;5044025;28;20083;-86
2023/07/30 09:44:13;;;;;;;1.50;1.30;;;;;;;;;;5054412;28;20501;-86
2023/07/30 09:46:44;;;;;;;1.73;1.13;;;;;;;;;;5067011;28;20510;-85
2023/07/30 09:49:10;;;;;;;2.13;1.30;;;;;;;;;;5058427;28;20039;-84
2023/07/30 09:51:38;;;;;;;1.50;1.20;;;;;;;;;;5067804;28;20100;-88
2023/07/30 09:54:03;;;;;;;2.28;1.20;;;;;;;;;;5062481;28;20029;-84
2023/07/30 09:56:29;;;;;;;1.58;1.20;;;;;;;;;;5055491;28;20025;-88
2023/07/30 09:58:54;;;;;;;4.97;2.00;;;;;;;;;;5060193;28;20050;-86
2023/07/30 10:01:25;;;;;;;3.60;1.67;;;;;;;;;;5065845;28;20025;-86
2023/07/30 10:03:52;;;;;;;2.13;1.50;;;;;;;;;;5062699;28;20056;-85
2023/07/30 10:06:18;;;;;;;2.25;1.60;;;;;;;;;;5050305;28;20504;-85
2023/07/30 10:08:45;;;;;;;1.85;1.45;;;;;;;;;;5056728;28;20091;-85
2023/07/30 10:11:11;;;;;;;2.63;1.40;;;;;;;;;;5071829;28;20036;-86
2023/07/30 10:13:39;;;;;;;2.13;1.40;;;;;;;;;;5061562;28;20044;-85
2023/07/30 10:16:11;;;;;;;1.88;1.60;;;;;;;;;;5051825;28;20051;-85
2023/07/30 10:18:41;;;;;;;2.65;1.40;;;;;;;;;;5055731;28;20040;-86
2023/07/30 10:21:21;;;;;;;2.45;1.60;;;;;;;;;;5070633;28;20037;-86
2023/07/30 10:23:57;;;;;;;2.88;1.55;;;;;;;;;;5058283;28;20041;-86
2023/07/30 10:26:33;;;;;;;2.20;1.40;;;;;;;;;;5057030;28;20037;-86
2023/07/30 10:29:11;;;;;;;2.17;1.30;;;;;;;;;;5056213;28;20415;-84
2023/07/30 10:31:41;;;;;;;2.10;1.20;;;;;;;;;;5058086;28;20130;-86
2023/07/30 10:34:09;;;;;;;2.00;1.27;;;;;;;;;;5058805;28;20045;-85
2023/07/30 10:36:43;;;;;;;2.30;1.40;;;;;;;;;;5069663;28;20092;-86
2023/07/30 10:39:20;;;;;;;1.98;1.50;;;;;;;;;;5059551;28;20090;-88
2023/07/30 10:41:50;;;;;;;1.75;1.20;;;;;;;;;;5047330;28;20037;-85
2023/07/30 10:44:23;;;;;;;2.20;1.40;;;;;;;;;;5075826;28;20036;-87
2023/07/30 10:46:48;;;;;;;1.50;1.20;;;;;;;;;;5069281;28;20051;-85
2023/07/30 10:49:14;;;;;;;1.60;1.27;;;;;;;;;;5051624;28;20127;-85
2023/07/30 10:51:40;;;;;;;1.50;1.27;;;;;;;;;;5052282;28;20044;-86
2023/07/30 10:54:07;;;;;;;1.88;1.20;;;;;;;;;;5066529;28;20036;-86
2023/07/30 10:56:35;;;;;;;1.27;1.10;;;;;;;;;;5057858;28;20083;-85
2023/07/30 10:59:04;;;;;;;2.10;1.20;;;;;;;;;;5050320;28;20041;-84
2023/07/30 11:01:29;;;;;;;1.80;1.15;;;;;;;;;;5043258;28;20048;-87
2023/07/30 11:03:54;;;;;;;1.50;1.10;;;;;;;;;;5049196;28;20029;-83
2023/07/30 11:06:24;;;;;;;1.67;1.25;;;;;;;;;;5059520;28;20025;-84
2023/07/30 11:08:50;;;;;;;1.50;1.23;;;;;;;;;;5060280;28;20037;-83
2023/07/30 11:11:15;;;;;;;1.67;1.20;;;;;;;;;;5063633;28;20123;-81
2023/07/30 11:13:43;;;;;;;1.80;1.30;;;;;;;;;;5051230;28;20041;-81
2023/07/30 11:16:10;;;;;;;1.40;1.25;;;;;;;;;;5049314;28;20043;-84
2023/07/30 11:18:37;;;;;;;1.38;1.20;;;;;;;;;;5063954;28;20021;-84
2023/07/30 11:21:20;;;;;;;1.73;1.20;;;;;;;;;;5061908;28;20460;-84
2023/07/30 11:23:46;;;;;;;;;;;;;;;;;;5057325;28;20056;-83
2023/07/30 11:26:19;;;;;;;1.77;1.20;;;;;;;;;;5049177;28;19934;-83
2023/07/30 11:28:45;;;;;;;1.38;1.10;;;;;;;;;;5055146;28;20028;-84
2023/07/30 11:31:10;;;;;;;1.25;1.10;;;;;;;;;;5071073;28;20053;-84
2023/07/30 11:33:42;;;;;;;1.55;1.33;;;;;;;;;;5063246;28;20033;-82
2023/07/30 11:36:11;;;;;;;1.55;1.20;;;;;;;;;;5060119;28;20057;-84
2023/07/30 11:38:38;;;;;;;2.25;1.23;;;;;;;;;;5055758;28;20052;-83
2023/07/30 11:41:05;;;;;;;1.70;1.30;;;;;;;;;;5063706;28;20025;-84
2023/07/30 11:43:31;;;;;;;1.73;1.20;;;;;;;;;;5057392;28;20032;-81
2023/07/30 11:46:17;;;;;;;1.95;1.33;;;;;;;;;;5050754;28;20408;-85
2023/07/30 11:48:45;;;;;;;3.28;1.27;;;;;;;;;;5055444;28;20042;-84
2023/07/30 11:51:21;;;;;;;1.70;1.30;;;;;;;;;;5055248;28;20036;-84
2023/07/30 11:53:54;;;;;;;1.23;1.10;;;;;;;;;;5056800;28;20167;-83
2023/07/30 11:56:21;;;;;;;1.42;1.10;;;;;;;;;;5062197;28;20048;-82
2023/07/30 11:58:48;;;;;;;1.50;1.20;;;;;;;;;;5051431;28;20108;-83
2023/07/30 12:01:15;;;;;;;1.67;1.20;;;;;;;;;;5040697;28;20551;-83
2023/07/30 12:03:41;;;;;;;3.15;1.30;;;;;;;;;;5061556;28;20044;-83
2023/07/30 12:06:07;;;;;;;1.30;1.10;;;;;;;;;;5063245;28;20086;-83
2023/07/30 12:08:35;;;;;;;1.38;1.20;;;;;;;;;;5053852;28;20047;-82
2023/07/30 12:11:08;;;;;;;2.03;1.20;;;;;;;;;;5049285;28;20056;-81
2023/07/30 12:13:41;;;;;;;1.55;1.27;;;;;;;;;;5050166;28;20063;-81
2023/07/30 12:16:06;;;;;;;1.63;1.20;;;;;;;;;;5062777;28;20083;-80
2023/07/30 12:18:32;;;;;;;1.70;1.30;;;;;;;;;;5051877;28;20416;-82
2023/07/30 12:20:57;;;;;;;1.30;1.20;;;;;;;;;;5062050;28;20097;-83
2023/07/30 12:23:23;;;;;;;1.90;1.20;;;;;;;;;;5052449;28;20043;-82
2023/07/30 12:25:50;;;;;;;2.75;1.30;;;;;;;;;;5052936;28;20125;-82
2023/07/30 12:28:16;;;;;;;2.03;1.40;;;;;;;;;;5064009;28;20047;-81
2023/07/30 12:30:41;;;;;;;1.80;1.27;;;;;;;;;;5061868;28;20028;-81
2023/07/30 12:33:07;;;;;;;2.53;1.30;;;;;;;;;;5052084;28;20041;-80
2023/07/30 12:35:33;;;;;;;3.50;1.20;;;;;;;;;;5042332;28;20056;-82
2023/07/30 12:38:01;;;;;;;1.92;1.23;;;;;;;;;;5066954;28;20791;-82
2023/07/30 12:40:29;;;;;;;1.50;1.20;;;;;;;;;;5062074;28;20060;-82
2023/07/30 12:42:55;;;;;;;1.58;1.13;;;;;;;;;;5052156;28;20079;-81
2023/07/30 12:45:21;;;;;;;1.88;1.20;;;;;;;;;;5054265;28;20072;-87
2023/07/30 12:47:46;;;;;;;1.30;1.00;;;;;;;;;;5053086;28;20034;-85
2023/07/30 12:50:12;;;;;;;1.75;1.20;;;;;;;;;;5060246;28;20049;-84
2023/07/30 12:52:37;;;;;;;1.50;1.15;;;;;;;;;;5053673;28;20041;-83
2023/07/30 12:55:04;;;;;;;1.85;1.20;;;;;;;;;;5059045;28;20040;-84
2023/07/30 12:57:30;;;;;;;1.90;1.33;;;;;;;;;;5048508;28;20041;-83
2023/07/30 12:59:56;;;;;;;3.08;1.30;;;;;;;;;;5045345;28;20044;-83
2023/07/30 13:02:21;;;;;;;3.08;1.30;;;;;;;;;;5064960;28;20063;-84
2023/07/30 13:04:47;;;;;;;1.95;1.20;;;;;;;;;;5056929;28;20067;-84
2023/07/30 13:07:12;;;;;;;2.08;1.40;;;;;;;;;;5046699;28;20063;-83
2023/07/30 13:09:38;;;;;;;1.48;1.20;;;;;;;;;;5047621;28;20040;-85
2023/07/30 13:12:03;;;;;;;1.50;1.20;;;;;;;;;;5062959;28;20028;-85
2023/07/30 13:14:29;;;;;;;2.20;1.30;;;;;;;;;;5058498;28;20105;-86
2023/07/30 13:16:54;;;;;;;2.63;1.20;;;;;;;;;;5048267;28;20044;-83
2023/07/30 13:19:20;;;;;;;1.67;1.23;;;;;;;;;;5054339;28;20029;-85
2023/07/30 13:21:45;;;;;;;1.60;1.30;;;;;;;;;;5037900;28;20439;-87
2023/07/30 13:24:11;;;;;;;1.92;1.30;;;;;;;;;;5060553;28;20039;-82
2023/07/30 13:26:36;;;;;;;1.65;1.25;;;;;;;;;;5062290;28;20054;-85
2023/07/30 13:29:02;;;;;;;1.77;1.30;;;;;;;;;;5059166;28;20104;-85
2023/07/30 13:31:28;;;;;;;1.55;1.20;;;;;;;;;;5053250;28;20029;-84
2023/07/30 13:33:54;;;;;;;1.50;1.20;;;;;;;;;;5055834;28;20083;-86
2023/07/30 13:36:19;;;;;;;1.40;1.20;;;;;;;;;;5067170;28;20042;-85
2023/07/30 13:38:45;;;;;;;2.78;1.17;;;;;;;;;;5056728;28;20116;-86
2023/07/30 13:41:10;;;;;;;1.77;1.25;;;;;;;;;;5045822;28;20492;-86
2023/07/30 13:43:36;;;;;;;1.45;1.15;;;;;;;;;;5054314;28;20586;-85
2023/07/30 13:46:01;;;;;;;1.30;1.20;;;;;;;;;;5065498;28;20116;-87
2023/07/30 13:48:27;;;;;;;1.30;1.20;;;;;;;;;;5060255;28;20064;-86
2023/07/30 13:50:53;;;;;;;1.90;1.40;;;;;;;;;;5053877;28;20505;-87
2023/07/30 13:53:19;;;;;;;2.50;1.27;;;;;;;;;;5057237;28;20051;-86
2023/07/30 13:55:45;;;;;;;1.67;1.30;;;;;;;;;;5047891;28;20033;-88
2023/07/30 13:58:11;;;;;;;2.47;1.30;;;;;;;;;;5058461;28;20033;-86
2023/07/30 14:00:36;;;;;;;2.97;1.42;;;;;;;;;;5064851;28;20033;-88
2023/07/30 14:03:02;;;;;;;1.75;1.30;;;;;;;;;;5059449;28;20503;-86
2023/07/30 14:05:28;;;;;;;1.90;1.30;;;;;;;;;;5045781;28;20047;-86
2023/07/30 14:07:56;;;;;;;2.30;1.40;;;;;;;;;;5054372;28;20100;-87
2023/07/30 14:10:25;;;;;;;2.00;1.20;;;;;;;;;;5079195;28;20040;-86
2023/07/30 14:12:50;;;;;;;2.60;1.17;;;;;;;;;;5069758;28;20033;-86
2023/07/30 14:15:16;;;;;;;2.50;1.27;;;;;;;;;;5065477;28;20164;-86
2023/07/30 14:17:42;;;;;;;2.60;1.30;;;;;;;;;;5064209;28;20134;-86
2023/07/30 14:20:08;;;;;;;2.28;1.23;;;;;;;;;;5069797;28;20033;-86
2023/07/30 14:22:34;;;;;;;2.08;1.30;;;;;;;;;;5061801;28;20048;-86
2023/07/30 14:25:02;;;;;;;1.50;1.13;;;;;;;;;;5055255;28;20053;-86
2023/07/30 14:27:28;;;;;;;3.65;1.40;;;;;;;;;;5058147;28;20048;-85
2023/07/30 14:29:53;;;;;;;1.80;1.30;;;;;;;;;;5046466;28;20043;-85
2023/07/30 14:32:23;;;;;;;1.38;1.10;;;;;;;;;;5059300;28;20040;-83
2023/07/30 14:34:48;;;;;;;2.05;1.25;;;;;;;;;;5060034;28;20103;-84
2023/07/30 14:37:14;;;;;;;1.80;1.33;;;;;;;;;;5057081;28;20472;-86
2023/07/30 14:39:40;;;;;;;1.65;1.13;;;;;;;;;;5056884;28;20045;-86